createdAt,value
2019-03-24T00:03:22.117Z,48.03
2019-03-24T00:07:27.027Z,53.63
2019-03-24T00:11:31.921Z,51.73
2019-03-24T00:15:36.822Z,50.13
2019-03-24T00:19:41.805Z,46.83
2019-03-24T00:23:46.706Z,54.83
2019-03-24T00:27:51.618Z,51.63
2019-03-24T00:31:56.511Z,52.30
2019-03-24T00:36:01.412Z,53.50
2019-03-24T00:40:09.609Z,53.10
2019-03-24T00:44:14.512Z,55.77
2019-03-24T00:48:19.417Z,48.80
2019-03-24T00:52:24.308Z,46.90
2019-03-24T00:56:29.207Z,51.43
2019-03-24T01:00:43.233Z,58.57
2019-03-24T01:04:48.132Z,57.97
2019-03-24T01:08:53.039Z,52.83
2019-03-24T01:12:57.941Z,53.60
2019-03-24T01:17:02.843Z,57.37
2019-03-24T01:21:07.750Z,56.13
2019-03-24T01:25:12.793Z,56.43
2019-03-24T01:29:17.691Z,58.83
2019-03-24T01:33:22.589Z,52.40
2019-03-24T01:37:27.493Z,56.43
2019-03-24T01:41:32.395Z,53.93
2019-03-24T01:45:37.300Z,52.60
2019-03-24T01:49:42.197Z,54.10
2019-03-24T01:53:47.086Z,64.40
2019-03-24T01:57:51.988Z,54.97
2019-03-24T02:01:56.893Z,58.47
2019-03-24T02:06:01.803Z,60.90
2019-03-24T02:10:10.338Z,61.43
2019-03-24T02:14:15.177Z,62.40
2019-03-24T02:18:20.084Z,66.27
2019-03-24T02:22:24.995Z,68.50
2019-03-24T02:26:29.888Z,69.50
2019-03-24T02:30:34.800Z,64.90
2019-03-24T02:34:39.769Z,55.97
2019-03-24T02:38:44.673Z,50.53
2019-03-24T02:42:49.579Z,47.70
2019-03-24T02:46:54.519Z,54.23
2019-03-24T02:50:59.384Z,55.47
2019-03-24T02:55:06.428Z,59.00
2019-03-24T02:59:11.329Z,53.90
2019-03-24T03:03:16.235Z,56.40
2019-03-24T03:07:21.152Z,54.70
2019-03-24T03:11:26.049Z,61.07
2019-03-24T03:15:30.959Z,60.93
2019-03-24T03:19:35.865Z,66.10
2019-03-24T03:23:40.773Z,66.73
2019-03-24T03:27:45.687Z,60.37
2019-03-24T03:31:50.582Z,57.50
2019-03-24T03:35:55.479Z,59.47
2019-03-24T03:40:00.845Z,54.50
2019-03-24T03:44:05.876Z,51.87
2019-03-24T03:48:10.772Z,63.70
2019-03-24T03:52:15.685Z,55.93
2019-03-24T03:56:20.577Z,71.77
2019-03-24T04:00:34.187Z,65.90
2019-03-24T04:04:40.158Z,71.60
2019-03-24T04:08:45.062Z,78.77
2019-03-24T04:12:49.974Z,84.37
2019-03-24T04:17:06.281Z,75.93
2019-03-24T04:21:01.465Z,81.73
2019-03-24T04:25:07.107Z,75.73
2019-03-24T04:29:12.019Z,70.70
2019-03-24T04:33:16.930Z,75.37
2019-03-24T04:37:21.822Z,78.57
2019-03-24T04:41:26.742Z,78.10
2019-03-24T04:45:31.627Z,84.43
2019-03-24T04:49:36.554Z,95.77
2019-03-24T04:53:41.445Z,91.13
2019-03-24T04:57:46.348Z,91.87
2019-03-24T05:01:51.255Z,91.43
2019-03-24T05:05:56.327Z,90.97
2019-03-24T05:10:01.234Z,83.97
2019-03-24T05:14:06.129Z,83.37
2019-03-24T05:18:11.033Z,90.80
2019-03-24T05:22:15.941Z,80.00
2019-03-24T05:26:20.849Z,88.77
2019-03-24T05:30:25.756Z,83.10
2019-03-24T05:34:30.652Z,72.33
2019-03-24T05:38:35.558Z,84.40
2019-03-24T05:42:40.465Z,86.70
2019-03-24T05:46:45.442Z,86.03
2019-03-24T05:50:50.339Z,77.43
2019-03-24T05:54:55.232Z,84.03
2019-03-24T05:59:00.136Z,74.50
2019-03-24T06:03:05.040Z,79.67
2019-03-24T06:07:09.949Z,73.97
2019-03-24T06:11:14.860Z,77.47
2019-03-24T06:15:19.763Z,71.10
2019-03-24T06:19:24.656Z,76.77
2019-03-24T06:23:29.556Z,72.97
2019-03-24T06:27:34.466Z,73.67
2019-03-24T06:31:39.366Z,68.03
2019-03-24T06:35:44.261Z,68.90
2019-03-24T06:39:49.173Z,70.03
2019-03-24T06:43:54.096Z,65.30
2019-03-24T06:47:59.001Z,67.60
2019-03-24T06:52:03.976Z,70.67
2019-03-24T06:56:08.860Z,66.53
2019-03-24T07:00:14.002Z,68.17
2019-03-24T07:04:18.906Z,73.93
2019-03-24T07:08:23.813Z,65.33
2019-03-24T07:12:28.727Z,65.83
2019-03-24T07:16:33.620Z,69.20
2019-03-24T07:20:38.533Z,71.07
2019-03-24T07:24:43.436Z,67.57
2019-03-24T07:28:48.345Z,68.60
2019-03-24T07:32:53.315Z,68.83
2019-03-24T07:36:58.218Z,66.20
2019-03-24T07:41:03.118Z,63.87
2019-03-24T07:45:08.464Z,66.67
2019-03-24T07:49:14.386Z,67.63
2019-03-24T07:53:19.322Z,67.07
2019-03-24T07:57:24.215Z,68.47
2019-03-24T08:01:29.135Z,61.87
2019-03-24T08:05:34.110Z,62.90
2019-03-24T08:09:39.015Z,61.57
2019-03-24T08:13:53.310Z,70.73
2019-03-24T08:17:50.500Z,69.67
2019-03-24T08:21:55.405Z,73.20
2019-03-24T08:26:00.316Z,62.43
2019-03-24T08:30:07.258Z,65.00
2019-03-24T08:34:12.161Z,71.30
2019-03-24T08:38:17.131Z,61.10
2019-03-24T08:42:22.039Z,67.57
2019-03-24T08:46:26.946Z,65.60
2019-03-24T08:50:31.872Z,61.63
2019-03-24T08:54:36.781Z,66.83
2019-03-24T08:58:41.686Z,65.67
2019-03-24T09:02:46.593Z,65.80
2019-03-24T09:06:52.328Z,68.27
2019-03-24T09:10:57.246Z,70.53
2019-03-24T09:15:02.164Z,66.37
2019-03-24T09:19:07.067Z,62.63
2019-03-24T09:23:11.982Z,61.03
2019-03-24T09:27:16.889Z,74.23
2019-03-24T09:31:22.767Z,60.43
2019-03-24T09:35:27.705Z,61.47
2019-03-24T09:39:33.676Z,61.97
2019-03-24T09:43:38.590Z,63.73
2019-03-24T09:47:43.501Z,57.40
2019-03-24T09:51:48.412Z,57.27
2019-03-24T09:55:53.320Z,65.43
2019-03-24T09:59:58.217Z,63.77
2019-03-24T10:04:03.141Z,64.43
2019-03-24T10:08:08.054Z,69.30
2019-03-24T10:12:12.967Z,66.07
2019-03-24T10:16:17.870Z,63.00
2019-03-24T10:20:22.774Z,61.83
2019-03-24T10:24:27.683Z,59.33
2019-03-24T10:28:32.600Z,63.30
2019-03-24T10:32:37.519Z,60.57
2019-03-24T10:36:42.417Z,58.70
2019-03-24T10:40:47.326Z,63.43
2019-03-24T10:44:52.239Z,59.13
2019-03-24T10:48:57.147Z,63.30
2019-03-24T10:53:02.631Z,53.63
2019-03-24T10:57:07.543Z,63.37
2019-03-24T11:01:12.444Z,56.03
2019-03-24T11:05:17.363Z,56.67
2019-03-24T11:09:22.275Z,55.57
2019-03-24T11:13:27.189Z,55.93
2019-03-24T11:17:32.094Z,55.63
2019-03-24T11:21:36.995Z,52.50
2019-03-24T11:25:41.909Z,51.40
2019-03-24T11:29:46.812Z,51.23
2019-03-24T11:33:51.726Z,51.03
2019-03-24T11:37:56.627Z,47.00
2019-03-24T11:42:02.510Z,47.40
2019-03-24T11:46:07.417Z,42.70
2019-03-24T11:50:12.667Z,44.97
2019-03-24T11:54:17.582Z,45.40
2019-03-24T11:58:23.568Z,43.30
2019-03-24T12:02:28.467Z,45.17
2019-03-24T12:06:33.379Z,43.07
2019-03-24T12:10:38.434Z,39.40
2019-03-24T12:14:43.342Z,31.67
2019-03-24T12:18:48.254Z,38.93
2019-03-24T12:22:53.160Z,47.50
2019-03-24T12:26:59.149Z,43.73
2019-03-24T12:31:04.061Z,47.90
2019-03-24T12:35:09.391Z,45.90
2019-03-24T12:39:14.305Z,43.73
2019-03-24T12:43:19.964Z,41.70
2019-03-24T12:47:24.908Z,41.17
2019-03-24T12:51:29.821Z,41.17
2019-03-24T12:55:34.730Z,39.47
2019-03-24T12:59:39.642Z,39.90
2019-03-24T13:03:44.557Z,48.47
2019-03-24T13:07:49.478Z,43.30
2019-03-24T13:11:54.394Z,41.20
2019-03-24T13:15:59.455Z,41.30
2019-03-24T13:20:19.578Z,37.57
2019-03-24T13:24:15.514Z,39.20
2019-03-24T13:28:20.437Z,37.87
2019-03-24T13:32:25.338Z,41.37
2019-03-24T13:36:30.239Z,42.30
2019-03-24T13:40:35.153Z,39.53
2019-03-24T13:44:40.063Z,40.90
2019-03-24T13:48:44.975Z,40.40
2019-03-24T13:52:49.887Z,39.87
2019-03-24T13:56:54.792Z,39.13
2019-03-24T14:00:59.698Z,39.80
2019-03-24T14:05:04.748Z,36.50
2019-03-24T14:09:11.135Z,39.70
2019-03-24T14:13:16.043Z,40.63
2019-03-24T14:17:20.947Z,39.93
2019-03-24T14:21:25.858Z,37.83
2019-03-24T14:25:30.770Z,36.60
2019-03-24T14:29:35.683Z,36.93
2019-03-24T14:33:40.593Z,31.63
2019-03-24T14:37:45.500Z,32.23
2019-03-24T14:41:50.414Z,38.37
2019-03-24T14:45:55.325Z,33.67
2019-03-24T14:50:00.331Z,35.50
2019-03-24T14:54:05.228Z,35.77
2019-03-24T14:58:10.131Z,28.00
2019-03-24T15:02:15.042Z,36.00
2019-03-24T15:06:19.950Z,33.40
2019-03-24T15:10:24.864Z,28.57
2019-03-24T15:14:29.773Z,27.40
2019-03-24T15:18:34.815Z,25.47
2019-03-24T15:22:39.726Z,29.23
2019-03-24T15:26:44.637Z,28.90
2019-03-24T15:30:49.545Z,27.93
2019-03-24T15:34:54.459Z,28.50
2019-03-24T15:38:59.364Z,28.97
2019-03-24T15:43:04.563Z,25.10
2019-03-24T15:47:09.566Z,30.07
2019-03-24T15:51:17.195Z,27.23
2019-03-24T15:55:21.069Z,28.97
2019-03-24T15:59:25.949Z,28.80
2019-03-24T16:03:30.861Z,31.07
2019-03-24T16:07:35.771Z,28.97
2019-03-24T16:11:40.677Z,25.87
2019-03-24T16:15:45.592Z,24.17
2019-03-24T16:19:50.493Z,25.87
2019-03-24T16:23:55.401Z,21.43
2019-03-24T16:28:00.322Z,23.70
2019-03-24T16:32:05.236Z,21.53
2019-03-24T16:36:10.146Z,19.07
2019-03-24T16:40:15.066Z,24.17
2019-03-24T16:44:19.970Z,19.27
2019-03-24T16:48:24.873Z,16.50
2019-03-24T16:52:29.774Z,18.70
2019-03-24T16:56:34.680Z,19.67
2019-03-24T17:00:39.590Z,24.03
2019-03-24T17:04:44.494Z,17.70
2019-03-24T17:08:49.393Z,22.00
2019-03-24T17:12:54.291Z,19.73
2019-03-24T17:16:59.193Z,16.30
2019-03-24T17:21:04.115Z,20.33
2019-03-24T17:25:09.346Z,18.00
2019-03-24T17:29:14.275Z,21.00
2019-03-24T17:33:19.173Z,19.53
2019-03-24T17:37:24.088Z,29.20
2019-03-24T17:41:29.008Z,21.10
2019-03-24T17:45:34.050Z,26.00
2019-03-24T17:49:38.953Z,20.50
2019-03-24T17:53:43.869Z,20.83
2019-03-24T17:57:48.782Z,18.93
2019-03-24T18:01:53.682Z,20.67
2019-03-24T18:05:59.708Z,21.20
2019-03-24T18:10:05.818Z,24.07
2019-03-24T18:14:11.801Z,24.90
2019-03-24T18:18:16.718Z,25.17
2019-03-24T18:22:22.064Z,26.87
2019-03-24T18:26:26.974Z,22.00
2019-03-24T18:30:31.887Z,20.90
2019-03-24T18:34:36.796Z,22.13
2019-03-24T18:38:41.691Z,19.63
2019-03-24T18:42:46.768Z,14.53
2019-03-24T18:46:51.733Z,14.37
2019-03-24T18:50:56.624Z,18.50
2019-03-24T18:55:01.525Z,18.90
2019-03-24T18:59:06.419Z,15.27
2019-03-24T19:03:11.320Z,18.87
2019-03-24T19:07:16.215Z,13.83
2019-03-24T19:11:21.113Z,17.80
2019-03-24T19:15:26.080Z,12.23
2019-03-24T19:19:30.973Z,16.93
2019-03-24T19:23:35.854Z,16.63
2019-03-24T19:27:40.786Z,13.63
2019-03-24T19:31:45.674Z,15.47
2019-03-24T19:35:50.746Z,11.00
2019-03-24T19:39:55.716Z,16.20
2019-03-24T19:44:00.608Z,12.93
2019-03-24T19:48:05.645Z,12.00
2019-03-24T19:52:10.541Z,12.57
2019-03-24T19:56:15.435Z,7.10
2019-03-24T20:00:20.393Z,8.60
2019-03-24T20:04:25.273Z,16.10
2019-03-24T20:08:31.145Z,9.17
2019-03-24T20:12:36.030Z,11.70
2019-03-24T20:16:40.933Z,11.13
2019-03-24T20:20:45.808Z,9.30
2019-03-24T20:24:50.702Z,9.50
2019-03-24T20:28:55.596Z,8.93
2019-03-24T20:33:00.485Z,8.30
2019-03-24T20:37:05.386Z,14.63
2019-03-24T20:41:10.272Z,8.00
2019-03-24T20:45:15.157Z,11.00
2019-03-24T20:49:20.071Z,15.57
2019-03-24T20:53:24.950Z,6.13
2019-03-24T20:57:29.845Z,11.77
2019-03-24T21:01:34.738Z,8.67
2019-03-24T21:05:39.700Z,8.47
2019-03-24T21:09:46.604Z,9.87
2019-03-24T21:13:51.246Z,12.10
2019-03-24T21:17:56.133Z,9.37
2019-03-24T21:22:01.027Z,9.33
2019-03-24T21:26:05.918Z,8.17
2019-03-24T21:30:11.842Z,9.70
2019-03-24T21:34:16.738Z,7.83
2019-03-24T21:38:21.629Z,6.17
2019-03-24T21:42:26.514Z,7.87
2019-03-24T21:46:31.406Z,7.03
2019-03-24T21:50:36.291Z,10.23
2019-03-24T21:54:41.182Z,5.63
2019-03-24T21:58:46.069Z,8.00
2019-03-24T22:02:50.959Z,8.53
2019-03-24T22:06:55.849Z,7.17
2019-03-24T22:11:00.727Z,6.37
2019-03-24T22:15:09.303Z,7.80
2019-03-24T22:19:14.189Z,7.20
2019-03-24T22:23:20.050Z,11.63
2019-03-24T22:27:24.943Z,8.13
2019-03-24T22:31:29.825Z,11.93
2019-03-24T22:35:34.720Z,10.10
2019-03-24T22:39:39.621Z,8.97
2019-03-24T22:43:44.507Z,8.60
2019-03-24T22:47:49.391Z,9.13
2019-03-24T22:52:06.598Z,8.83
2019-03-24T22:56:01.820Z,7.57
2019-03-24T23:00:15.764Z,6.70
2019-03-24T23:04:22.258Z,7.33
2019-03-24T23:08:27.157Z,10.23
2019-03-24T23:12:32.042Z,16.90
2019-03-24T23:16:36.939Z,10.77
2019-03-24T23:20:41.827Z,6.93
2019-03-24T23:24:46.717Z,9.10
2019-03-24T23:28:51.609Z,10.83
2019-03-24T23:32:56.495Z,10.90
2019-03-24T23:37:01.390Z,10.33
2019-03-24T23:41:06.290Z,10.43
2019-03-24T23:45:11.826Z,14.83
2019-03-24T23:49:16.717Z,9.70
2019-03-24T23:53:21.600Z,8.70
2019-03-24T23:57:26.485Z,8.70
